createdAt,value
2022-08-05T00:04:56.889Z,24.12
2022-08-05T00:09:59.289Z,24.10
2022-08-05T00:15:54.313Z,24.13
2022-08-05T00:20:22.693Z,23.96
2022-08-05T00:25:45.329Z,24.00
2022-08-05T00:30:47.408Z,23.92
2022-08-05T00:36:15.977Z,23.92
2022-08-05T00:41:27.648Z,23.77
2022-08-05T00:46:53.918Z,23.83
2022-08-05T00:52:00.574Z,23.66
2022-08-05T00:57:02.186Z,23.57
2022-08-05T01:02:04.190Z,23.66
2022-08-05T01:07:06.067Z,23.64
2022-08-05T01:12:20.189Z,23.51
2022-08-05T01:17:30.587Z,23.57
2022-08-05T01:22:47.127Z,23.51
2022-08-05T01:28:13.252Z,23.43
2022-08-05T01:33:19.609Z,23.33
2022-08-05T01:38:26.840Z,23.23
2022-08-05T01:43:32.501Z,23.34
2022-08-05T01:48:36.779Z,23.27
2022-08-05T01:53:57.743Z,23.15
2022-08-05T01:59:04.805Z,23.15
2022-08-05T02:04:09.114Z,23.02
2022-08-05T02:09:12.360Z,23.01
2022-08-05T02:14:27.443Z,22.97
2022-08-05T02:19:35.854Z,22.86
2022-08-05T02:24:53.256Z,22.86
2022-08-05T02:29:58.582Z,22.88
2022-08-05T02:35:13.854Z,22.99
2022-08-05T02:40:17.403Z,22.95
2022-08-05T02:45:21.330Z,22.88
2022-08-05T02:50:26.869Z,22.80
2022-08-05T02:55:54.984Z,22.74
2022-08-05T03:00:58.825Z,22.74
2022-08-05T03:06:55.333Z,22.63
2022-08-05T03:11:55.744Z,22.69
2022-08-05T03:16:47.087Z,22.86
2022-08-05T03:21:50.153Z,22.99
2022-08-05T03:26:51.988Z,22.86
2022-08-05T03:31:57.122Z,22.65
2022-08-05T03:37:04.080Z,22.87
2022-08-05T03:42:05.877Z,22.69
2022-08-05T03:47:07.527Z,22.60
2022-08-05T03:52:48.980Z,22.81
2022-08-05T03:57:42.673Z,22.69
2022-08-05T04:02:58.344Z,22.81
2022-08-05T04:08:03.462Z,22.68
2022-08-05T04:13:08.147Z,22.77
2022-08-05T04:18:12.725Z,22.91
2022-08-05T04:24:05.719Z,22.72
2022-08-05T04:28:51.987Z,22.85
2022-08-05T04:34:18.783Z,22.97
2022-08-05T04:39:15.618Z,23.09
2022-08-05T04:44:21.450Z,23.13
2022-08-05T04:49:38.990Z,23.18
2022-08-05T04:54:53.042Z,23.34
2022-08-05T04:59:54.721Z,23.62
2022-08-05T05:05:01.940Z,23.65
2022-08-05T05:10:06.659Z,23.81
2022-08-05T05:15:10.739Z,23.96
2022-08-05T05:20:13.870Z,24.29
2022-08-05T05:25:16.670Z,24.32
2022-08-05T05:30:29.358Z,24.44
2022-08-05T05:35:38.029Z,24.58
2022-08-05T05:40:49.837Z,24.80
2022-08-05T05:45:53.149Z,25.05
2022-08-05T05:50:54.979Z,25.33
2022-08-05T05:56:00.720Z,25.38
2022-08-05T06:01:13.340Z,25.81
2022-08-05T06:06:19.882Z,26.49
2022-08-05T06:11:24.106Z,26.50
2022-08-05T06:16:30.695Z,27.37
2022-08-05T06:21:35.927Z,27.66
2022-08-05T06:26:51.078Z,28.01
2022-08-05T06:31:54.191Z,27.98
2022-08-05T06:36:58.277Z,28.37
2022-08-05T06:42:04.073Z,29.05
2022-08-05T06:47:06.701Z,29.64
2022-08-05T06:52:38.203Z,29.63
2022-08-05T06:58:03.468Z,29.39
2022-08-05T07:02:56.081Z,29.19
2022-08-05T07:07:57.973Z,28.96
2022-08-05T07:13:58.381Z,28.79
2022-08-05T07:18:47.737Z,28.81
2022-08-05T07:23:50.110Z,28.45
2022-08-05T07:28:53.966Z,28.25
2022-08-05T07:33:55.601Z,28.11
2022-08-05T07:39:03.960Z,27.58
2022-08-05T07:44:19.113Z,27.44
2022-08-05T07:49:21.289Z,28.35
2022-08-05T07:54:31.744Z,28.45
2022-08-05T07:59:40.363Z,28.22
2022-08-05T08:04:42.585Z,28.54
2022-08-05T08:09:48.113Z,28.10
2022-08-05T08:14:49.807Z,27.89
2022-08-05T08:20:43.729Z,28.05
2022-08-05T08:25:15.715Z,27.97
2022-08-05T08:30:32.726Z,28.05
2022-08-05T08:35:41.219Z,28.34
2022-08-05T08:40:50.413Z,27.85
2022-08-05T08:45:54.111Z,27.74
2022-08-05T08:51:23.283Z,28.22
2022-08-05T08:56:18.147Z,28.85
2022-08-05T09:01:19.974Z,29.05
2022-08-05T09:06:24.156Z,29.38
2022-08-05T09:11:52.205Z,29.78
2022-08-05T09:16:54.946Z,29.58
2022-08-05T09:22:22.686Z,29.87
2022-08-05T09:28:04.308Z,30.28
2022-08-05T09:33:01.399Z,30.46
2022-08-05T09:38:16.088Z,30.78
2022-08-05T09:43:40.710Z,31.37
2022-08-05T09:48:43.229Z,31.02
2022-08-05T09:54:08.556Z,30.93
2022-08-05T09:59:17.170Z,31.34
2022-08-05T10:04:19.159Z,31.70
2022-08-05T10:09:44.947Z,31.83
2022-08-05T10:14:46.927Z,31.29
2022-08-05T10:20:03.753Z,31.61
2022-08-05T10:25:11.080Z,32.43
2022-08-05T10:31:20.392Z,32.37
2022-08-05T10:35:43.819Z,32.50
2022-08-05T10:40:49.821Z,32.61
2022-08-05T10:45:58.803Z,32.85
2022-08-05T10:51:22.326Z,32.98
2022-08-05T10:56:36.608Z,33.15
2022-08-05T11:02:03.779Z,33.48
2022-08-05T11:07:06.865Z,33.70
2022-08-05T11:12:27.143Z,33.96
2022-08-05T11:17:57.905Z,33.81
2022-08-05T11:23:00.461Z,34.01
2022-08-05T11:28:17.079Z,34.31
2022-08-05T11:33:34.721Z,34.36
2022-08-05T11:38:51.254Z,34.37
2022-08-05T11:44:05.173Z,34.44
2022-08-05T11:49:15.962Z,34.83
2022-08-05T11:54:34.369Z,34.99
2022-08-05T11:59:49.422Z,35.39
2022-08-05T12:04:59.712Z,35.35
2022-08-05T12:10:09.296Z,34.82
2022-08-05T12:15:20.896Z,34.88
2022-08-05T12:20:41.348Z,34.93
2022-08-05T12:25:53.837Z,34.95
2022-08-05T12:31:02.325Z,33.57
2022-08-05T12:36:08.047Z,33.73
2022-08-05T12:41:13.923Z,33.93
2022-08-05T12:46:28.933Z,34.52
2022-08-05T12:52:10.329Z,34.76
2022-08-05T12:56:59.215Z,34.86
2022-08-05T13:02:09.797Z,35.02
2022-08-05T13:07:47.455Z,35.18
2022-08-05T13:12:57.266Z,35.06
2022-08-05T13:17:59.518Z,34.51
2022-08-05T13:23:01.232Z,34.37
2022-08-05T13:28:10.575Z,34.23
2022-08-05T13:33:14.355Z,34.68
2022-08-05T13:38:36.029Z,34.33
2022-08-05T13:43:43.990Z,34.40
2022-08-05T13:48:57.717Z,34.41
2022-08-05T13:54:01.046Z,33.66
2022-08-05T13:59:06.028Z,34.05
2022-08-05T14:04:40.203Z,33.89
2022-08-05T14:09:45.980Z,34.26
2022-08-05T14:14:48.721Z,34.22
2022-08-05T14:19:56.229Z,34.02
2022-08-05T14:25:02.210Z,33.86
2022-08-05T14:30:20.628Z,33.60
2022-08-05T14:35:22.896Z,33.80
2022-08-05T14:40:24.752Z,33.53
2022-08-05T14:45:26.386Z,33.49
2022-08-05T14:50:28.180Z,33.32
2022-08-05T14:55:39.592Z,33.29
2022-08-05T15:00:58.840Z,33.32
2022-08-05T15:06:12.889Z,33.46
2022-08-05T15:11:16.718Z,33.27
2022-08-05T15:16:18.438Z,33.05
2022-08-05T15:21:21.029Z,32.77
2022-08-05T15:26:31.683Z,32.68
2022-08-05T15:31:34.980Z,32.62
2022-08-05T15:36:36.859Z,32.53
2022-08-05T15:41:57.759Z,32.61
2022-08-05T15:47:04.355Z,32.48
2022-08-05T15:52:14.171Z,33.50
2022-08-05T15:57:19.735Z,33.38
2022-08-05T16:02:25.606Z,33.92
2022-08-05T16:07:30.621Z,33.77
2022-08-05T16:12:32.257Z,32.51
2022-08-05T16:17:33.952Z,32.67
2022-08-05T16:22:35.683Z,32.30
2022-08-05T16:28:01.001Z,32.13
2022-08-05T16:33:01.467Z,31.92
2022-08-05T16:38:24.654Z,31.83
2022-08-05T16:43:25.489Z,31.86
2022-08-05T16:48:33.925Z,31.62
2022-08-05T16:54:03.416Z,31.42
2022-08-05T16:59:11.108Z,31.19
2022-08-05T17:04:16.279Z,30.95
2022-08-05T17:09:20.534Z,30.67
2022-08-05T17:14:36.862Z,30.34
2022-08-05T17:19:39.486Z,30.54
2022-08-05T17:24:45.382Z,30.33
2022-08-05T17:29:59.741Z,30.22
2022-08-05T17:35:04.030Z,30.12
2022-08-05T17:40:10.297Z,29.88
2022-08-05T17:45:20.491Z,29.30
2022-08-05T17:50:29.005Z,28.93
2022-08-05T17:55:38.511Z,28.36
2022-08-05T18:00:47.549Z,27.91
2022-08-05T18:05:53.648Z,27.57
2022-08-05T18:10:55.990Z,26.79
2022-08-05T18:15:59.139Z,26.37
2022-08-05T18:21:00.884Z,25.98
2022-08-05T18:26:04.779Z,25.41
2022-08-05T18:31:07.189Z,25.04
2022-08-05T18:36:15.655Z,24.69
2022-08-05T18:41:57.641Z,24.31
2022-08-05T18:46:41.314Z,23.82
2022-08-05T18:52:09.061Z,23.64
2022-08-05T18:57:15.520Z,23.48
2022-08-05T19:02:37.996Z,23.49
2022-08-05T19:07:45.935Z,23.42
2022-08-05T19:12:48.816Z,23.35
2022-08-05T19:18:08.185Z,23.40
2022-08-05T19:24:03.774Z,23.08
2022-08-05T19:28:34.980Z,22.87
2022-08-05T19:33:38.091Z,22.47
2022-08-05T19:38:43.887Z,22.60
2022-08-05T19:44:05.506Z,22.25
2022-08-05T19:49:08.069Z,22.12
2022-08-05T19:54:22.802Z,21.91
2022-08-05T19:59:56.445Z,21.70
2022-08-05T20:04:58.959Z,21.94
2022-08-05T20:10:01.171Z,21.81
2022-08-05T20:15:02.847Z,21.76
2022-08-05T20:20:09.450Z,21.79
2022-08-05T20:25:12.619Z,21.60
2022-08-05T20:30:14.380Z,21.54
2022-08-05T20:35:19.937Z,21.34
2022-08-05T20:40:22.920Z,21.28
2022-08-05T20:45:55.801Z,21.35
2022-08-05T20:50:47.057Z,21.30
2022-08-05T20:56:07.204Z,21.28
2022-08-05T21:01:16.407Z,21.00
2022-08-05T21:06:28.519Z,20.84
2022-08-05T21:12:07.169Z,20.83
2022-08-05T21:16:52.852Z,20.89
2022-08-05T21:21:55.140Z,20.70
2022-08-05T21:26:58.713Z,20.66
2022-08-05T21:32:02.434Z,20.62
2022-08-05T21:37:05.042Z,20.56
2022-08-05T21:42:07.088Z,20.37
2022-08-05T21:47:55.753Z,20.32
2022-08-05T21:52:50.336Z,20.10
2022-08-05T21:57:52.017Z,20.18
2022-08-05T22:02:56.122Z,20.08
2022-08-05T22:07:59.581Z,19.89
2022-08-05T22:13:09.210Z,19.97
2022-08-05T22:18:25.977Z,19.69
2022-08-05T22:24:02.182Z,19.57
2022-08-05T22:29:05.755Z,19.47
2022-08-05T22:34:07.930Z,19.64
2022-08-05T22:39:12.842Z,19.70
2022-08-05T22:44:14.771Z,19.50
2022-08-05T22:49:45.991Z,19.42
2022-08-05T22:54:48.746Z,19.18
2022-08-05T22:59:54.159Z,19.03
2022-08-05T23:04:56.038Z,18.61
2022-08-05T23:10:01.490Z,18.35
2022-08-05T23:15:08.976Z,18.31
2022-08-05T23:20:17.894Z,17.91
2022-08-05T23:25:54.668Z,17.43
2022-08-05T23:30:43.445Z,17.58
2022-08-05T23:35:45.619Z,17.49
2022-08-05T23:40:50.165Z,17.36
2022-08-05T23:45:52.093Z,17.36
2022-08-05T23:50:53.703Z,17.59
2022-08-05T23:55:55.426Z,17.53
